Time;durP1;ratioP1;P1;durP2;ratioP2;P2;SDS_P1;SDS_P2;PMS_P1;PMS_P2;Temp;Humidity;BMP_temperature;BMP_pressure;BME280_temperature;BME280_humidity;BME280_pressure;Samples;Min_cycle;Max_cycle;Signal;HPM_P1;HPM_P2
2022/01/20 00:01:21;;;;;;;1.13;1.03;;;;;;;5.11;74.30;96844.72;5058154;28;20207;-67
2022/01/20 00:03:47;;;;;;;1.00;0.60;;;;;;;5.01;74.08;96840.41;5057730;28;20277;-67
2022/01/20 00:09:16;;;;;;;0.50;0.50;;;;;;;4.79;74.87;96847.56;5026847;28;20673;-68
2022/01/20 00:28:14;;;;;;;1.33;1.23;;;;;;;4.78;76.24;96851.94;5057876;28;20274;-68
2022/01/20 00:30:46;;;;;;;1.23;0.83;;;;;;;4.45;76.75;96851.28;5057891;28;20264;-67
2022/01/20 00:33:22;;;;;;;3.80;1.60;;;;;;;4.41;77.01;96850.69;5056284;28;20218;-68
2022/01/20 00:38:34;;;;;;;1.00;0.90;;;;;;;4.46;77.27;96850.31;5057741;28;20281;-67
2022/01/20 00:41:00;;;;;;;1.57;1.07;;;;;;;4.46;77.08;96858.97;5057000;28;20219;-68
2022/01/20 00:43:28;;;;;;;3.10;1.50;;;;;;;4.51;77.50;96859.44;5056708;28;20212;-68
2022/01/20 00:45:55;;;;;;;1.53;1.20;;;;;;;4.57;77.75;96860.69;5057623;28;20232;-68
2022/01/20 00:48:22;;;;;;;1.50;0.67;;;;;;;4.43;78.42;96858.38;5057431;28;20579;-67
2022/01/20 00:50:49;;;;;;;0.93;0.67;;;;;;;4.24;80.10;96858.25;5057566;28;20200;-67
2022/01/20 00:53:16;;;;;;;8.90;1.93;;;;;;;4.25;80.86;96870.31;5056828;28;20212;-68
2022/01/20 00:55:42;;;;;;;1.33;1.23;;;;;;;4.27;81.22;96858.00;5057306;28;20209;-68
2022/01/20 00:58:09;;;;;;;3.87;1.23;;;;;;;4.33;81.69;96866.16;5056831;28;20232;-68
2022/01/20 01:00:37;;;;;;;2.27;1.37;;;;;;;4.28;81.78;96863.06;5057706;28;20207;-68
2022/01/20 01:03:04;;;;;;;4.13;1.63;;;;;;;4.12;81.92;96859.22;5056084;28;20236;-67
2022/01/20 01:05:33;;;;;;;1.90;1.40;;;;;;;4.12;81.76;96871.44;5057053;28;20224;-68
2022/01/20 01:08:00;;;;;;;3.83;1.67;;;;;;;4.31;81.64;96867.22;5056733;28;20224;-67
2022/01/20 01:10:29;;;;;;;0.80;0.80;;;;;;;4.28;81.78;96870.09;5056939;28;20224;-67
2022/01/20 01:13:01;;;;;;;1.53;1.10;;;;;;;4.26;81.21;96872.81;5055748;28;20200;-67
2022/01/20 01:15:33;;;;;;;1.97;0.80;;;;;;;4.35;80.64;96877.28;5056712;28;20193;-68
2022/01/20 01:23:32;;;;;;;3.93;1.73;;;;;;;4.19;81.75;96876.03;5055539;28;20218;-67
2022/01/20 01:25:59;;;;;;;5.70;1.50;;;;;;;3.99;82.16;96878.59;5056799;28;21387;-67
2022/01/20 01:28:29;;;;;;;2.83;1.10;;;;;;;3.98;82.40;96872.50;5056734;28;20204;-67
2022/01/20 01:31:21;;;;;;;1.70;1.33;;;;;;;4.06;82.46;96872.75;5058016;28;20968;-67
2022/01/20 01:33:55;;;;;;;0.73;0.73;;;;;;;4.12;84.08;96880.06;5055935;28;20200;-67
2022/01/20 01:36:24;;;;;;;2.30;1.63;;;;;;;3.93;84.92;96890.31;5056803;28;20284;-68
2022/01/20 01:38:51;;;;;;;0.93;0.93;;;;;;;3.87;84.86;96876.91;5056678;28;20204;-67
2022/01/20 01:41:27;;;;;;;3.90;1.43;;;;;;;3.81;85.88;96874.81;5057060;28;20661;-67
2022/01/20 01:43:54;;;;;;;1.57;1.13;;;;;;;3.93;85.49;96877.25;5055894;28;20211;-67
2022/01/20 01:46:21;;;;;;;0.60;0.60;;;;;;;3.72;85.91;96875.56;5056794;28;20890;-67
2022/01/20 01:48:49;;;;;;;1.00;0.90;;;;;;;4.05;85.50;96884.13;5056371;28;20692;-68
2022/01/20 01:51:16;;;;;;;1.27;0.83;;;;;;;3.76;85.83;96869.97;5056626;28;20201;-69
2022/01/20 01:53:42;;;;;;;1.27;1.00;;;;;;;3.85;85.33;96877.06;5056338;28;20212;-69
2022/01/20 01:56:09;;;;;;;0.83;0.83;;;;;;;3.75;86.18;96873.50;5056771;28;20231;-67
2022/01/20 01:58:36;;;;;;;2.10;1.20;;;;;;;3.85;85.73;96871.84;5056309;28;20228;-68
2022/01/20 02:01:03;;;;;;;2.57;1.57;;;;;;;4.02;85.83;96863.53;5057025;28;20215;-69
2022/01/20 02:03:33;;;;;;;3.47;1.93;;;;;;;3.84;86.10;96861.53;5056291;28;20200;-68
2022/01/20 02:06:21;;;;;;;1.50;1.13;;;;;;;3.91;86.27;96868.75;5055894;28;20220;-67
2022/01/20 02:08:56;;;;;;;1.33;0.97;;;;;;;3.76;86.55;96866.53;5056579;28;20318;-68
2022/01/20 02:19:35;;;;;;;0.87;0.77;;;;;;;3.68;86.74;96856.72;5056700;28;20243;-68
2022/01/20 02:22:03;;;;;;;2.87;1.77;;;;;;;3.93;86.11;96842.56;5060848;28;21050;-67
2022/01/20 02:24:30;;;;;;;0.93;0.50;;;;;;;3.66;86.55;96845.56;5059319;28;20207;-67
2022/01/20 02:26:57;;;;;;;1.10;1.00;;;;;;;3.88;85.45;96840.34;5060345;28;20231;-68
2022/01/20 02:29:24;;;;;;;4.83;1.70;;;;;;;3.81;86.17;96846.97;5059561;28;20197;-67
2022/01/20 02:31:54;;;;;;;1.37;0.80;;;;;;;3.95;86.08;96848.50;5059947;28;20200;-68
2022/01/20 02:34:22;;;;;;;2.17;1.27;;;;;;;4.01;85.72;96851.44;5060239;28;20196;-67
2022/01/20 02:36:49;;;;;;;1.27;1.17;;;;;;;3.91;86.17;96837.47;5059473;28;20224;-67
2022/01/20 02:39:42;;;;;;;1.63;1.07;;;;;;;3.79;86.28;96835.84;5059714;28;20318;-68
2022/01/20 02:45:01;;;;;;;1.13;0.77;;;;;;;3.91;86.08;96824.44;5060200;28;20691;-67
2022/01/20 02:47:30;;;;;;;2.03;0.70;;;;;;;3.94;86.35;96829.41;5059693;28;20230;-67
2022/01/20 02:49:58;;;;;;;0.90;0.90;;;;;;;4.12;85.86;96827.91;5060129;28;20211;-68
2022/01/20 02:52:26;;;;;;;5.07;2.20;;;;;;;4.03;86.13;96826.06;5059124;28;20203;-68
2022/01/20 02:54:55;;;;;;;1.83;1.43;;;;;;;3.88;87.37;96827.31;5059181;28;20215;-68
2022/01/20 02:57:22;;;;;;;2.83;1.70;;;;;;;3.87;87.29;96830.00;5059179;28;20212;-68
2022/01/20 02:59:48;;;;;;;3.23;1.90;;;;;;;3.79;88.26;96832.41;5059676;28;20262;-67
2022/01/20 03:02:15;;;;;;;2.63;1.67;;;;;;;3.71;88.74;96830.41;5058457;28;20200;-68
2022/01/20 03:04:41;;;;;;;1.13;0.77;;;;;;;3.62;89.00;96840.72;5058858;28;20218;-68
2022/01/20 03:07:08;;;;;;;0.73;0.73;;;;;;;3.69;89.25;96834.91;5059167;28;20238;-68
2022/01/20 03:09:35;;;;;;;1.20;1.10;;;;;;;3.79;88.13;96837.63;5059176;28;20684;-68
2022/01/20 03:12:04;;;;;;;5.67;2.10;;;;;;;3.90;88.04;96830.59;5058902;28;20200;-68
2022/01/20 03:14:31;;;;;;;3.33;1.33;;;;;;;3.78;87.96;96836.78;5059355;28;20196;-68
2022/01/20 03:16:58;;;;;;;1.30;1.00;;;;;;;3.86;87.97;96836.19;5059261;28;20217;-68
2022/01/20 03:19:24;;;;;;;0.87;0.70;;;;;;;3.83;88.13;96846.84;5059136;28;20204;-68
2022/01/20 03:21:51;;;;;;;0.40;0.40;;;;;;;3.63;88.66;96840.59;5058757;28;20201;-68
2022/01/20 03:24:17;;;;;;;1.80;1.33;;;;;;;3.68;89.06;96848.06;5059058;28;21095;-68
2022/01/20 03:26:44;;;;;;;3.43;1.10;;;;;;;3.86;89.19;96841.41;5060537;28;20646;-68
2022/01/20 03:29:12;;;;;;;8.30;1.90;;;;;;;3.75;89.46;96839.63;5060617;28;20208;-68
2022/01/20 03:31:39;;;;;;;2.60;1.10;;;;;;;3.57;89.24;96836.84;5059655;28;20196;-68
2022/01/20 03:34:06;;;;;;;1.13;0.90;;;;;;;3.51;89.68;96837.31;5059668;28;20218;-69
2022/01/20 03:36:33;;;;;;;0.50;0.50;;;;;;;3.48;90.25;96845.38;5059957;28;20266;-68
2022/01/20 03:38:59;;;;;;;2.30;0.83;;;;;;;3.60;89.81;96837.41;5060399;28;20214;-69
2022/01/20 03:41:26;;;;;;;1.80;0.83;;;;;;;3.66;89.78;96844.75;5060082;28;20211;-68
2022/01/20 03:43:52;;;;;;;0.80;0.80;;;;;;;3.55;90.28;96841.31;5059641;28;20204;-68
2022/01/20 03:46:20;;;;;;;2.37;1.40;;;;;;;3.91;89.83;96845.28;5061273;28;20262;-67
2022/01/20 03:48:52;;;;;;;4.27;1.60;;;;;;;3.45;91.41;96850.81;5060203;28;20369;-67
2022/01/20 03:51:21;;;;;;;2.53;1.27;;;;;;;3.56;91.95;96849.00;5059124;28;20200;-68
2022/01/20 03:53:50;;;;;;;4.10;1.40;;;;;;;3.61;91.88;96846.06;5058446;28;20210;-68
2022/01/20 03:56:23;;;;;;;2.70;1.40;;;;;;;3.49;92.51;96847.00;5059334;28;20263;-69
2022/01/20 03:58:50;;;;;;;3.03;1.37;;;;;;;3.51;92.66;96851.16;5055041;28;20207;-69
2022/01/20 04:01:18;;;;;;;2.17;1.70;;;;;;;3.54;92.29;96848.31;5057558;28;20214;-68
2022/01/20 04:03:46;;;;;;;1.97;1.47;;;;;;;3.43;93.18;96843.09;5056844;28;20200;-69
2022/01/20 04:06:13;;;;;;;2.60;2.03;;;;;;;3.40;93.83;96850.31;5057550;28;20234;-68
2022/01/20 04:08:41;;;;;;;1.90;1.03;;;;;;;3.49;93.32;96855.66;5057923;28;20676;-68
2022/01/20 04:11:10;;;;;;;1.87;1.30;;;;;;;3.54;93.77;96855.28;5058507;28;20208;-68
2022/01/20 04:13:38;;;;;;;2.63;1.00;;;;;;;3.35;93.89;96849.88;5057260;28;20229;-69
2022/01/20 04:16:13;;;;;;;1.33;1.23;;;;;;;3.45;95.02;96856.84;5058295;28;20206;-68
2022/01/20 04:18:40;;;;;;;5.57;2.50;;;;;;;3.43;95.56;96848.31;5058456;28;20204;-69
2022/01/20 04:21:08;;;;;;;0.50;0.50;;;;;;;3.29;96.28;96845.94;5058204;28;20227;-67
2022/01/20 04:23:34;;;;;;;1.73;1.10;;;;;;;3.26;96.67;96840.13;5057449;28;20950;-68
2022/01/20 04:26:01;;;;;;;2.37;1.07;;;;;;;3.13;97.03;96855.06;5058090;28;20211;-68
2022/01/20 04:28:27;;;;;;;4.10;1.97;;;;;;;3.10;97.87;96856.13;5058118;28;20214;-69
2022/01/20 04:30:54;;;;;;;4.93;1.93;;;;;;;3.11;98.18;96847.38;5057557;28;21022;-69
2022/01/20 04:33:20;;;;;;;1.13;1.03;;;;;;;3.29;97.15;96839.94;5057729;28;20200;-68
2022/01/20 04:35:47;;;;;;;3.40;1.93;;;;;;;3.28;97.25;96840.88;5057614;28;20224;-69
2022/01/20 04:38:15;;;;;;;2.13;1.53;;;;;;;3.38;97.51;96832.22;5057730;28;20207;-69
2022/01/20 04:40:43;;;;;;;3.10;1.83;;;;;;;3.22;97.03;96833.50;5057355;28;20237;-68
2022/01/20 04:43:09;;;;;;;1.60;1.40;;;;;;;3.34;96.86;96835.19;5056853;28;20212;-68
2022/01/20 04:45:41;;;;;;;3.90;1.80;;;;;;;3.34;96.84;96836.00;5057521;28;20204;-68
2022/01/20 04:48:24;;;;;;;2.53;2.13;;;;;;;3.33;97.68;96846.56;5057316;28;20301;-68
2022/01/20 04:59:04;;;;;;;6.63;2.30;;;;;;;3.35;97.08;96847.28;5057088;28;20635;-68
2022/01/20 05:01:31;;;;;;;2.93;1.87;;;;;;;3.37;97.22;96845.38;5056859;28;20201;-68
2022/01/20 05:04:00;;;;;;;2.90;1.40;;;;;;;3.46;96.52;96847.25;5056590;28;20211;-68
2022/01/20 05:06:27;;;;;;;2.07;1.33;;;;;;;3.19;97.57;96852.81;5057790;28;20239;-68
2022/01/20 05:08:55;;;;;;;4.23;1.90;;;;;;;3.48;97.85;96843.59;5057489;28;20204;-68
2022/01/20 05:11:21;;;;;;;2.13;1.60;;;;;;;3.45;96.26;96853.41;5056496;28;20197;-68
2022/01/20 05:13:48;;;;;;;3.50;1.33;;;;;;;3.41;96.65;96849.38;5056182;28;20219;-68
2022/01/20 05:16:14;;;;;;;4.73;2.40;;;;;;;3.23;98.08;96850.81;5056906;28;20238;-68
2022/01/20 05:18:41;;;;;;;2.80;1.80;;;;;;;3.13;98.81;96849.84;5056833;28;20212;-68
2022/01/20 05:21:07;;;;;;;1.23;1.13;;;;;;;3.30;97.54;96839.00;5057183;28;20207;-68
2022/01/20 05:23:34;;;;;;;3.13;2.13;;;;;;;3.29;97.75;96834.72;5056380;28;20214;-68
2022/01/20 05:26:02;;;;;;;1.40;1.30;;;;;;;3.49;97.49;96831.38;5056356;28;20273;-68
2022/01/20 05:28:28;;;;;;;2.47;1.90;;;;;;;3.37;97.58;96834.94;5056629;28;20587;-68
2022/01/20 05:30:55;;;;;;;2.53;1.63;;;;;;;3.18;98.12;96832.09;5057233;28;20200;-68
2022/01/20 05:33:21;;;;;;;5.00;2.57;;;;;;;3.34;97.29;96836.00;5056380;28;20211;-68
2022/01/20 05:35:48;;;;;;;3.87;2.57;;;;;;;3.36;97.85;96835.88;5057048;28;21017;-68
2022/01/20 05:38:14;;;;;;;3.93;3.07;;;;;;;3.32;98.01;96834.47;5056979;28;20567;-68
2022/01/20 05:40:41;;;;;;;0.47;0.47;;;;;;;3.15;98.82;96834.94;5056742;28;20215;-67
2022/01/20 05:43:09;;;;;;;3.83;1.43;;;;;;;3.26;98.79;96834.94;5055860;28;20970;-68
2022/01/20 05:45:36;;;;;;;2.00;1.23;;;;;;;3.15;99.20;96837.56;5057076;28;20584;-67
2022/01/20 05:48:11;;;;;;;2.53;2.00;;;;;;;3.25;98.42;96831.50;5056838;28;20264;-67
2022/01/20 05:50:38;;;;;;;2.90;1.93;;;;;;;3.36;97.83;96831.53;5056375;28;20214;-67
2022/01/20 05:53:05;;;;;;;1.97;1.70;;;;;;;3.51;97.58;96839.91;5055891;28;20211;-68
2022/01/20 05:55:33;;;;;;;3.17;2.33;;;;;;;3.34;99.00;96828.19;5060261;28;20235;-67
2022/01/20 05:58:00;;;;;;;3.00;2.13;;;;;;;3.33;97.99;96833.53;5060938;28;20764;-68
2022/01/20 06:00:28;;;;;;;2.23;1.60;;;;;;;3.31;99.03;96843.22;5060626;28;20215;-68
2022/01/20 06:05:40;;;;;;;2.77;1.67;;;;;;;3.26;99.20;96845.34;5060767;28;20613;-68
2022/01/20 06:08:07;;;;;;;3.57;2.57;;;;;;;3.31;98.88;96845.81;5060383;28;20240;-69
2022/01/20 06:10:34;;;;;;;2.57;1.80;;;;;;;3.18;99.48;96858.13;5061211;28;20208;-68
2022/01/20 06:13:01;;;;;;;1.13;1.07;;;;;;;3.38;98.79;96860.06;5059827;28;20209;-69
2022/01/20 06:15:29;;;;;;;3.80;2.40;;;;;;;3.52;98.64;96862.41;5060731;28;20212;-68
2022/01/20 06:17:56;;;;;;;3.10;1.53;;;;;;;3.24;99.26;96860.28;5060637;28;20219;-69
2022/01/20 06:20:23;;;;;;;3.27;2.10;;;;;;;3.53;98.37;96864.09;5060676;28;20231;-68
2022/01/20 06:22:49;;;;;;;1.50;1.23;;;;;;;3.34;98.98;96871.66;5059421;28;20215;-69
2022/01/20 06:25:16;;;;;;;3.77;2.40;;;;;;;3.44;98.17;96864.78;5060035;28;20201;-68
2022/01/20 06:27:42;;;;;;;3.73;1.73;;;;;;;3.42;98.65;96864.88;5060015;28;20233;-69
2022/01/20 06:30:10;;;;;;;3.10;2.10;;;;;;;3.43;98.84;96852.72;5059941;28;20645;-68
2022/01/20 06:32:38;;;;;;;2.87;1.50;;;;;;;3.43;99.00;96847.50;5059459;28;20200;-68
2022/01/20 06:35:05;;;;;;;1.70;1.60;;;;;;;3.32;99.19;96831.88;5060139;28;20231;-68
2022/01/20 06:37:32;;;;;;;1.30;1.20;;;;;;;3.32;98.91;96839.69;5059842;28;20220;-68
2022/01/20 06:39:58;;;;;;;1.67;1.17;;;;;;;3.32;98.74;96831.88;5060066;28;20226;-68
2022/01/20 06:42:25;;;;;;;2.30;1.73;;;;;;;3.20;98.79;96820.63;5059195;28;21066;-68
2022/01/20 06:44:51;;;;;;;4.53;0.87;;;;;;;3.33;98.98;96817.91;5059707;28;20424;-67
2022/01/20 06:47:19;;;;;;;1.93;1.37;;;;;;;3.58;98.99;96810.66;5060186;28;20229;-68
2022/01/20 06:49:47;;;;;;;2.90;1.67;;;;;;;3.72;97.97;96824.25;5059941;28;20238;-68
2022/01/20 06:52:14;;;;;;;4.07;2.20;;;;;;;3.47;98.13;96822.88;5059389;28;20210;-69
2022/01/20 06:54:40;;;;;;;2.90;1.80;;;;;;;3.24;99.08;96814.22;5059319;28;20215;-68
2022/01/20 06:57:07;;;;;;;4.30;2.07;;;;;;;3.26;99.29;96814.09;5059772;28;20221;-69
2022/01/20 06:59:33;;;;;;;4.33;2.07;;;;;;;3.08;100.00;96818.13;5059772;28;20203;-68
2022/01/20 07:02:00;;;;;;;3.83;1.33;;;;;;;3.34;99.00;96822.97;5059960;28;20212;-68
2022/01/20 07:04:27;;;;;;;4.13;1.77;;;;;;;3.26;99.94;96824.50;5057780;28;20204;-70
2022/01/20 07:06:56;;;;;;;2.77;2.33;;;;;;;3.51;99.26;96838.13;5058700;28;20314;-71
2022/01/20 07:09:22;;;;;;;2.37;1.10;;;;;;;3.13;100.00;96845.50;5059544;28;20192;-70
2022/01/20 07:11:48;;;;;;;2.73;2.00;;;;;;;3.16;100.00;96860.03;5059421;28;20201;-71
2022/01/20 07:14:15;;;;;;;2.60;1.33;;;;;;;3.26;100.00;96868.78;5058773;28;20203;-68
2022/01/20 07:16:41;;;;;;;1.37;1.27;;;;;;;3.27;100.00;96867.84;5059736;28;20221;-68
2022/01/20 07:19:08;;;;;;;4.40;1.93;;;;;;;3.33;100.00;96870.00;5059372;28;20211;-68
2022/01/20 07:21:35;;;;;;;4.67;2.43;;;;;;;3.37;99.99;96863.59;5059512;28;20215;-70
2022/01/20 07:24:03;;;;;;;1.60;1.50;;;;;;;3.52;100.00;96872.84;5059249;28;20218;-68
2022/01/20 07:26:29;;;;;;;2.83;2.17;;;;;;;3.28;100.00;96877.31;5058359;28;20220;-69
2022/01/20 07:28:56;;;;;;;1.87;1.57;;;;;;;3.47;99.98;96865.38;5058664;28;20234;-68
2022/01/20 07:31:23;;;;;;;5.70;1.93;;;;;;;3.24;100.00;96861.09;5059698;28;20207;-68
2022/01/20 07:33:49;;;;;;;5.50;2.87;;;;;;;3.31;100.00;96864.06;5058482;28;20209;-71
2022/01/20 07:36:16;;;;;;;3.97;2.20;;;;;;;3.41;100.00;96870.22;5059255;28;20216;-68
2022/01/20 07:38:43;;;;;;;3.77;1.67;;;;;;;3.23;100.00;96871.63;5059660;28;20207;-69
2022/01/20 07:41:11;;;;;;;3.90;2.23;;;;;;;3.62;100.00;96862.38;5059105;28;20600;-70
2022/01/20 07:43:38;;;;;;;5.27;2.73;;;;;;;3.55;100.00;96869.97;5058179;28;20217;-71
2022/01/20 07:46:05;;;;;;;2.60;1.80;;;;;;;3.41;100.00;96881.50;5059312;28;21232;-70
2022/01/20 07:48:31;;;;;;;8.63;3.53;;;;;;;3.53;99.84;96885.75;5059058;28;20226;-69
2022/01/20 07:50:58;;;;;;;6.07;3.20;;;;;;;3.50;99.58;96886.00;5058847;28;21042;-71
2022/01/20 07:53:24;;;;;;;3.93;1.97;;;;;;;3.59;99.26;96880.06;5059357;28;20202;-70
2022/01/20 07:55:52;;;;;;;1.63;1.37;;;;;;;3.54;99.24;96886.56;5058715;28;20211;-67
2022/01/20 07:58:20;;;;;;;1.90;1.33;;;;;;;3.60;99.71;96886.09;5057914;28;20739;-70
2022/01/20 08:00:46;;;;;;;2.73;2.20;;;;;;;3.61;99.13;96887.75;5058292;28;20583;-69
2022/01/20 08:03:13;;;;;;;6.67;2.33;;;;;;;3.57;99.34;96896.75;5059019;28;21220;-68
2022/01/20 08:05:39;;;;;;;2.30;2.00;;;;;;;3.62;99.34;96908.47;5057701;28;20212;-68
2022/01/20 08:08:06;;;;;;;4.40;2.73;;;;;;;3.64;98.82;96909.19;5058225;28;20232;-68
2022/01/20 08:10:34;;;;;;;2.70;2.20;;;;;;;3.46;98.79;96905.38;5058755;28;20207;-69
2022/01/20 08:13:00;;;;;;;3.30;2.47;;;;;;;3.60;98.85;96912.16;5057628;28;20204;-68
2022/01/20 08:15:28;;;;;;;5.13;1.97;;;;;;;3.92;98.31;96919.09;5058179;28;20203;-69
2022/01/20 08:17:55;;;;;;;3.50;1.87;;;;;;;3.82;98.33;96921.63;5057272;28;20701;-68
2022/01/20 08:20:21;;;;;;;2.73;2.10;;;;;;;3.88;97.70;96923.75;5057531;28;20204;-68
2022/01/20 08:22:48;;;;;;;2.30;1.57;;;;;;;3.64;98.08;96928.25;5056848;28;20214;-68
2022/01/20 08:25:19;;;;;;;1.77;1.17;;;;;;;3.77;98.12;96942.00;5058030;28;20555;-68
2022/01/20 08:27:48;;;;;;;2.30;1.60;;;;;;;3.78;97.74;96941.06;5057357;28;20294;-70
2022/01/20 08:30:16;;;;;;;1.17;1.07;;;;;;;4.04;97.12;96941.63;5057679;28;20206;-70
2022/01/20 08:32:45;;;;;;;1.40;0.67;;;;;;;3.98;97.34;96939.50;5057203;28;20923;-68
2022/01/20 08:35:12;;;;;;;7.20;1.90;;;;;;;3.96;96.78;96936.16;5058047;28;20212;-69
2022/01/20 08:37:42;;;;;;;1.40;1.30;;;;;;;4.03;96.91;96935.56;5054674;28;20223;-70
2022/01/20 08:40:11;;;;;;;1.40;1.30;;;;;;;4.14;95.91;96950.34;5056422;28;20261;-69
2022/01/20 08:42:38;;;;;;;2.20;1.30;;;;;;;3.91;96.34;96939.16;5056033;28;20249;-68
2022/01/20 08:45:05;;;;;;;1.17;1.07;;;;;;;4.11;95.94;96946.25;5056283;28;20203;-68
2022/01/20 08:47:33;;;;;;;1.80;1.53;;;;;;;4.05;96.62;96945.88;5056326;28;20222;-69
2022/01/20 08:50:00;;;;;;;2.80;1.33;;;;;;;3.84;97.80;96952.78;5056471;28;20205;-70
2022/01/20 08:52:28;;;;;;;2.43;1.53;;;;;;;3.91;97.85;96946.16;5055528;28;20204;-69
2022/01/20 08:54:56;;;;;;;1.80;1.13;;;;;;;3.86;97.83;96950.88;5056063;28;20227;-68
2022/01/20 08:57:23;;;;;;;17.37;1.97;;;;;;;3.88;98.11;96944.59;5056106;28;20225;-68
2022/01/20 08:59:49;;;;;;;30.87;2.00;;;;;;;4.08;97.53;96936.03;5056544;28;20204;-69
2022/01/20 09:02:16;;;;;;;3.40;1.47;;;;;;;4.05;98.01;96951.09;5056104;28;20211;-68
2022/01/20 09:04:42;;;;;;;2.40;1.57;;;;;;;4.08;97.46;96953.47;5056156;28;20201;-69
2022/01/20 09:07:10;;;;;;;1.10;1.00;;;;;;;4.16;98.05;96959.72;5056138;28;20243;-70
2022/01/20 09:09:42;;;;;;;2.77;0.93;;;;;;;4.04;98.08;96976.34;5055827;28;20216;-68
2022/01/20 09:15:27;;;;;;;0.60;0.60;;;;;;;4.07;98.62;96990.94;5056628;28;20207;-70
2022/01/20 09:17:51;;;;;;;1.30;1.20;;;;;;;4.40;96.61;96991.72;5055260;28;20753;-70
2022/01/20 09:20:18;;;;;;;1.37;1.27;;;;;;;4.13;97.15;96983.44;5056313;28;20207;-67
2022/01/20 09:22:48;;;;;;;1.47;1.37;;;;;;;4.38;97.62;96975.38;5054679;28;20207;-68
2022/01/20 09:25:14;;;;;;;3.70;2.07;;;;;;;4.30;96.95;96980.34;5055681;28;20294;-67
2022/01/20 09:27:41;;;;;;;3.07;2.13;;;;;;;4.14;96.98;96981.66;5054679;28;20229;-68
2022/01/20 09:30:09;;;;;;;2.77;1.93;;;;;;;4.44;96.99;96978.31;5054967;28;20204;-67
2022/01/20 09:32:38;;;;;;;2.30;1.43;;;;;;;4.30;97.05;96964.69;5054410;28;20992;-67
2022/01/20 09:35:06;;;;;;;2.00;1.80;;;;;;;4.58;95.79;96967.59;5055405;28;20231;-67
2022/01/20 09:37:34;;;;;;;2.83;2.27;;;;;;;4.61;95.55;96976.94;5054625;28;20232;-67
2022/01/20 09:40:01;;;;;;;1.37;1.13;;;;;;;4.82;95.25;96971.66;5055532;28;20211;-67
2022/01/20 09:42:28;;;;;;;1.07;0.83;;;;;;;4.54;94.98;96981.00;5054643;28;20205;-67
2022/01/20 09:44:55;;;;;;;1.20;1.10;;;;;;;4.41;95.00;96969.88;5056383;28;20972;-67
2022/01/20 09:47:22;;;;;;;3.73;2.30;;;;;;;4.57;94.79;96965.94;5056532;28;20229;-67
2022/01/20 09:49:48;;;;;;;1.67;1.50;;;;;;;4.65;94.93;96965.31;5054541;28;20235;-67
2022/01/20 09:52:15;;;;;;;4.23;1.63;;;;;;;4.88;93.42;96978.16;5056122;28;20207;-67
2022/01/20 09:54:41;;;;;;;3.10;1.47;;;;;;;4.75;94.39;96974.03;5056448;28;20581;-67
2022/01/20 09:57:09;;;;;;;3.33;1.60;;;;;;;4.95;93.27;96969.72;5053490;28;20928;-67
2022/01/20 09:59:36;;;;;;;3.53;2.47;;;;;;;4.93;93.18;96982.06;5055784;28;20817;-67
2022/01/20 10:02:08;;;;;;;4.47;2.10;;;;;;;4.95;92.21;96977.53;5055228;28;20208;-67
2022/01/20 10:04:36;;;;;;;2.43;1.50;;;;;;;5.02;92.36;96962.19;5055062;28;20204;-67
2022/01/20 10:07:04;;;;;;;5.33;2.50;;;;;;;5.14;92.54;96967.25;5055096;28;20720;-67
2022/01/20 10:09:36;;;;;;;4.53;1.90;;;;;;;5.12;89.33;96963.09;5055060;28;20223;-67
2022/01/20 10:12:04;;;;;;;2.20;1.53;;;;;;;5.29;90.97;96957.31;5055548;28;20204;-67
2022/01/20 10:14:40;;;;;;;1.50;1.40;;;;;;;5.37;87.45;96939.19;5054423;28;20215;-67
2022/01/20 10:17:15;;;;;;;0.63;0.63;;;;;;;5.23;86.53;96948.19;5056041;28;20224;-67
2022/01/20 10:19:43;;;;;;;1.27;1.03;;;;;;;5.01;86.33;96950.91;5055037;28;20196;-68
2022/01/20 10:22:14;;;;;;;0.37;0.37;;;;;;;5.15;84.22;96971.50;5054236;28;20266;-67
2022/01/20 10:24:41;;;;;;;0.60;0.60;;;;;;;4.93;84.46;96970.78;5055146;28;20209;-67
2022/01/20 10:27:12;;;;;;;2.67;1.50;;;;;;;5.00;83.29;96964.94;5055559;28;20815;-67
2022/01/20 10:29:40;;;;;;;0.63;0.60;;;;;;;4.93;83.75;96978.63;5054715;28;20227;-67
2022/01/20 10:32:07;;;;;;;1.90;0.67;;;;;;;4.84;83.88;96969.75;5054787;28;20688;-67
2022/01/20 10:34:36;;;;;;;2.20;0.73;;;;;;;4.91;82.91;96965.69;5055424;28;20201;-67
2022/01/20 10:37:07;;;;;;;2.83;1.23;;;;;;;4.93;82.23;96974.22;5055248;28;20235;-67
2022/01/20 10:39:37;;;;;;;1.10;1.03;;;;;;;5.01;81.49;96966.56;5055181;28;20212;-67
2022/01/20 10:42:06;;;;;;;2.00;1.10;;;;;;;5.28;80.34;96958.25;5058133;28;20258;-67
2022/01/20 10:44:46;;;;;;;0.40;0.40;;;;;;;5.34;80.79;96953.34;5059092;28;20580;-67
2022/01/20 10:47:14;;;;;;;4.87;0.50;;;;;;;5.10;80.96;96971.03;5058358;28;21220;-67
2022/01/20 10:49:42;;;;;;;0.40;0.40;;;;;;;5.05;80.62;96967.16;5058799;28;20232;-67
2022/01/20 10:52:11;;;;;;;9.20;1.40;;;;;;;5.22;80.30;96970.06;5057534;28;20207;-67
2022/01/20 10:54:42;;;;;;;0.73;0.63;;;;;;;5.17;80.28;96961.75;5058177;28;20197;-67
2022/01/20 10:57:11;;;;;;;0.80;0.80;;;;;;;5.01;80.33;96960.53;5058751;28;20235;-67
2022/01/20 10:59:49;;;;;;;1.53;1.07;;;;;;;4.98;80.77;96966.84;5058503;28;20196;-67
2022/01/20 11:02:19;;;;;;;2.07;1.47;;;;;;;5.11;80.07;96959.66;5057222;28;20247;-67
2022/01/20 11:04:47;;;;;;;1.50;1.00;;;;;;;4.93;81.00;96963.78;5057917;28;20232;-67
2022/01/20 11:07:14;;;;;;;0.80;0.80;;;;;;;4.90;81.39;96964.03;5057320;28;20240;-67
2022/01/20 11:09:43;;;;;;;0.87;0.80;;;;;;;4.94;81.86;96967.22;5057704;28;20239;-67
2022/01/20 11:12:12;;;;;;;1.13;1.13;;;;;;;5.10;81.64;96963.22;5057209;28;20283;-67
2022/01/20 11:14:39;;;;;;;0.70;0.70;;;;;;;5.08;81.46;96957.31;5056679;28;20208;-67
2022/01/20 11:17:07;;;;;;;2.77;1.33;;;;;;;5.22;81.68;96954.38;5058702;28;20315;-67
2022/01/20 11:19:36;;;;;;;0.87;0.80;;;;;;;5.07;82.46;96944.38;5059442;28;20200;-67
2022/01/20 11:22:08;;;;;;;1.23;1.13;;;;;;;5.01;82.35;96935.22;5058687;28;20204;-67
2022/01/20 11:24:36;;;;;;;0.53;0.53;;;;;;;4.90;81.70;96932.69;5058924;28;20199;-67
2022/01/20 11:27:05;;;;;;;7.73;1.37;;;;;;;5.15;81.65;96942.75;5058721;28;20232;-67
2022/01/20 11:29:46;;;;;;;6.17;1.30;;;;;;;5.17;81.69;96937.44;5058783;28;20235;-67
2022/01/20 11:32:20;;;;;;;2.20;0.83;;;;;;;5.28;82.54;96938.16;5059142;28;20207;-67
2022/01/20 11:34:57;;;;;;;6.90;1.43;;;;;;;5.37;82.73;96940.00;5058144;28;20201;-67
2022/01/20 11:37:24;;;;;;;0.93;0.87;;;;;;;5.38;82.31;96938.25;5058234;28;20220;-67
2022/01/20 11:39:53;;;;;;;3.73;2.03;;;;;;;5.39;81.61;96940.72;5058453;28;20618;-67
2022/01/20 11:42:24;;;;;;;1.80;1.63;;;;;;;5.22;81.85;96930.88;5057706;28;20200;-67
2022/01/20 11:44:51;;;;;;;1.27;1.10;;;;;;;5.35;80.79;96938.50;5058830;28;20752;-67
2022/01/20 11:47:30;;;;;;;3.57;1.57;;;;;;;5.19;81.96;96925.88;5058106;28;20223;-67
2022/01/20 11:49:57;;;;;;;8.20;2.20;;;;;;;5.06;81.89;96933.06;5057742;28;20255;-67
2022/01/20 11:52:25;;;;;;;1.67;0.50;;;;;;;4.93;82.45;96931.63;5057060;28;20208;-67
2022/01/20 11:54:51;;;;;;;4.43;2.17;;;;;;;4.64;85.40;96940.97;5058377;28;20208;-67
2022/01/20 11:57:28;;;;;;;2.67;1.80;;;;;;;4.87;86.68;96937.34;5057757;28;20224;-67
2022/01/20 11:59:59;;;;;;;0.73;0.67;;;;;;;4.61;89.44;96945.63;5058093;28;20312;-67
2022/01/20 12:02:29;;;;;;;1.33;1.27;;;;;;;4.30;90.19;96959.47;5057619;28;20208;-68
2022/01/20 12:04:57;;;;;;;0.97;0.73;;;;;;;4.31;91.78;96941.06;5058020;28;20208;-67
2022/01/20 12:07:25;;;;;;;3.03;1.03;;;;;;;4.18;93.63;96931.75;5057940;28;20231;-67
2022/01/20 12:09:52;;;;;;;10.90;1.50;;;;;;;4.01;95.05;96934.88;5057590;28;20256;-67
2022/01/20 12:12:26;;;;;;;1.23;0.90;;;;;;;4.17;95.61;96918.84;5057486;28;20745;-68
2022/01/20 12:14:53;;;;;;;2.23;1.30;;;;;;;4.41;94.79;96909.88;5058403;28;20192;-68
2022/01/20 12:17:20;;;;;;;0.93;0.70;;;;;;;4.57;94.59;96899.84;5058162;28;20444;-67
2022/01/20 12:19:54;;;;;;;4.80;1.33;;;;;;;4.64;93.66;96904.44;5057601;28;20709;-68
2022/01/20 12:22:21;;;;;;;0.70;0.70;;;;;;;4.61;93.12;96894.25;5057237;28;20207;-67
2022/01/20 12:24:51;;;;;;;8.17;1.37;;;;;;;4.89;92.77;96894.47;5056968;28;20208;-67
2022/01/20 12:27:19;;;;;;;3.83;1.60;;;;;;;5.08;92.95;96888.56;5056925;28;20239;-67
2022/01/20 12:29:46;;;;;;;5.30;1.80;;;;;;;4.82;90.61;96893.34;5057293;28;20232;-67
2022/01/20 12:32:14;;;;;;;0.67;0.63;;;;;;;5.06;87.82;96895.69;5057263;28;20200;-67
2022/01/20 12:34:41;;;;;;;0.53;0.53;;;;;;;4.92;86.83;96894.22;5057012;28;20207;-67
2022/01/20 12:37:09;;;;;;;4.53;1.80;;;;;;;5.13;86.00;96896.81;5057252;28;20231;-68
2022/01/20 12:39:38;;;;;;;1.50;1.10;;;;;;;4.98;86.91;96896.31;5056900;28;20215;-67